sensor_id;sensor_type;location;lat;lon;timestamp;temperature;humidity
46416;DHT22;32620;51.704;7.822;2023-04-25T00:01:30;6.30;57.90
46416;DHT22;32620;51.704;7.822;2023-04-25T00:03:57;6.40;59.80
46416;DHT22;32620;51.704;7.822;2023-04-25T00:06:25;6.40;61.40
46416;DHT22;32620;51.704;7.822;2023-04-25T00:08:55;6.40;60.80
46416;DHT22;32620;51.704;7.822;2023-04-25T00:11:22;6.40;62.30
46416;DHT22;32620;51.704;7.822;2023-04-25T00:13:48;6.40;66.10
46416;DHT22;32620;51.704;7.822;2023-04-25T00:16:17;6.40;67.20
46416;DHT22;32620;51.704;7.822;2023-04-25T00:18:44;6.50;70.20
46416;DHT22;32620;51.704;7.822;2023-04-25T00:21:11;6.40;72.10
46416;DHT22;32620;51.704;7.822;2023-04-25T00:23:37;6.40;72.70
46416;DHT22;32620;51.704;7.822;2023-04-25T00:26:04;6.40;72.00
46416;DHT22;32620;51.704;7.822;2023-04-25T00:28:30;6.40;72.60
46416;DHT22;32620;51.704;7.822;2023-04-25T00:30:55;6.50;74.20
46416;DHT22;32620;51.704;7.822;2023-04-25T00:33:21;6.50;80.00
46416;DHT22;32620;51.704;7.822;2023-04-25T00:35:47;6.50;76.30
46416;DHT22;32620;51.704;7.822;2023-04-25T00:38:15;6.50;77.30
46416;DHT22;32620;51.704;7.822;2023-04-25T00:40:41;6.50;87.00
46416;DHT22;32620;51.704;7.822;2023-04-25T00:43:09;6.50;89.50
46416;DHT22;32620;51.704;7.822;2023-04-25T00:45:38;6.50;91.50
46416;DHT22;32620;51.704;7.822;2023-04-25T00:48:05;6.50;92.40
46416;DHT22;32620;51.704;7.822;2023-04-25T00:50:33;6.50;93.50
46416;DHT22;32620;51.704;7.822;2023-04-25T00:52:59;6.50;95.10
46416;DHT22;32620;51.704;7.822;2023-04-25T00:55:26;6.50;96.60
46416;DHT22;32620;51.704;7.822;2023-04-25T00:57:51;6.50;97.10
46416;DHT22;32620;51.704;7.822;2023-04-25T01:00:18;6.50;98.90
46416;DHT22;32620;51.704;7.822;2023-04-25T01:02:44;6.50;99.20
46416;DHT22;32620;51.704;7.822;2023-04-25T01:05:11;6.50;99.90
46416;DHT22;32620;51.704;7.822;2023-04-25T01:07:37;6.50;99.90
46416;DHT22;32620;51.704;7.822;2023-04-25T01:10:04;6.50;99.90
46416;DHT22;32620;51.704;7.822;2023-04-25T01:12:31;6.50;99.90
46416;DHT22;32620;51.704;7.822;2023-04-25T01:14:57;6.50;99.90
46416;DHT22;32620;51.704;7.822;2023-04-25T01:17:23;6.50;99.90
46416;DHT22;32620;51.704;7.822;2023-04-25T01:19:49;6.50;99.90
46416;DHT22;32620;51.704;7.822;2023-04-25T01:22:16;6.50;99.90
46416;DHT22;32620;51.704;7.822;2023-04-25T01:24:42;6.50;99.90
46416;DHT22;32620;51.704;7.822;2023-04-25T01:27:09;6.40;99.90
46416;DHT22;32620;51.704;7.822;2023-04-25T01:29:39;6.40;99.90
46416;DHT22;32620;51.704;7.822;2023-04-25T01:32:05;6.40;99.90
46416;DHT22;32620;51.704;7.822;2023-04-25T01:34:31;6.40;99.90
46416;DHT22;32620;51.704;7.822;2023-04-25T01:36:59;6.40;99.90
46416;DHT22;32620;51.704;7.822;2023-04-25T01:39:29;6.30;99.90
46416;DHT22;32620;51.704;7.822;2023-04-25T01:41:56;6.30;99.90
46416;DHT22;32620;51.704;7.822;2023-04-25T01:44:24;6.30;99.90
46416;DHT22;32620;51.704;7.822;2023-04-25T01:46:51;6.20;99.90
46416;DHT22;32620;51.704;7.822;2023-04-25T01:49:17;6.20;99.90
46416;DHT22;32620;51.704;7.822;2023-04-25T01:51:57;6.30;99.90
46416;DHT22;32620;51.704;7.822;2023-04-25T01:54:23;6.20;99.90
46416;DHT22;32620;51.704;7.822;2023-04-25T01:56:50;6.20;99.90
46416;DHT22;32620;51.704;7.822;2023-04-25T01:59:19;6.20;99.90
46416;DHT22;32620;51.704;7.822;2023-04-25T02:01:47;6.20;99.90
46416;DHT22;32620;51.704;7.822;2023-04-25T02:04:13;6.20;99.90
46416;DHT22;32620;51.704;7.822;2023-04-25T02:06:38;6.20;99.90
46416;DHT22;32620;51.704;7.822;2023-04-25T02:09:04;6.20;99.90
46416;DHT22;32620;51.704;7.822;2023-04-25T02:11:30;6.20;99.90
46416;DHT22;32620;51.704;7.822;2023-04-25T02:13:55;6.20;99.90
46416;DHT22;32620;51.704;7.822;2023-04-25T02:16:21;6.20;99.90
46416;DHT22;32620;51.704;7.822;2023-04-25T02:18:47;6.20;99.90
46416;DHT22;32620;51.704;7.822;2023-04-25T02:21:13;6.20;99.90
46416;DHT22;32620;51.704;7.822;2023-04-25T02:23:42;6.20;99.90
46416;DHT22;32620;51.704;7.822;2023-04-25T02:26:14;6.20;99.90
46416;DHT22;32620;51.704;7.822;2023-04-25T02:28:39;6.20;99.90
46416;DHT22;32620;51.704;7.822;2023-04-25T02:31:07;6.30;99.90
46416;DHT22;32620;51.704;7.822;2023-04-25T02:33:33;6.30;99.90
46416;DHT22;32620;51.704;7.822;2023-04-25T02:35:59;6.30;99.90
46416;DHT22;32620;51.704;7.822;2023-04-25T02:38:25;6.20;99.90
46416;DHT22;32620;51.704;7.822;2023-04-25T02:40:51;6.30;99.90
46416;DHT22;32620;51.704;7.822;2023-04-25T02:43:20;6.30;99.90
46416;DHT22;32620;51.704;7.822;2023-04-25T02:45:46;6.30;99.90
46416;DHT22;32620;51.704;7.822;2023-04-25T02:48:11;6.30;99.90
46416;DHT22;32620;51.704;7.822;2023-04-25T02:50:37;6.30;99.90
46416;DHT22;32620;51.704;7.822;2023-04-25T02:53:06;6.30;99.90
46416;DHT22;32620;51.704;7.822;2023-04-25T02:55:32;6.30;99.90
46416;DHT22;32620;51.704;7.822;2023-04-25T02:58:01;6.30;99.90
46416;DHT22;32620;51.704;7.822;2023-04-25T03:00:30;6.30;99.90
46416;DHT22;32620;51.704;7.822;2023-04-25T03:02:56;6.30;99.90
46416;DHT22;32620;51.704;7.822;2023-04-25T03:05:25;6.30;99.90
46416;DHT22;32620;51.704;7.822;2023-04-25T03:07:53;6.30;99.90
46416;DHT22;32620;51.704;7.822;2023-04-25T03:10:21;6.30;99.90
46416;DHT22;32620;51.704;7.822;2023-04-25T03:12:47;6.30;99.90
46416;DHT22;32620;51.704;7.822;2023-04-25T03:15:13;6.20;99.90
46416;DHT22;32620;51.704;7.822;2023-04-25T03:17:41;6.30;99.90
46416;DHT22;32620;51.704;7.822;2023-04-25T03:20:12;6.30;99.90
46416;DHT22;32620;51.704;7.822;2023-04-25T03:22:41;6.30;99.90
46416;DHT22;32620;51.704;7.822;2023-04-25T03:25:07;6.20;99.90
46416;DHT22;32620;51.704;7.822;2023-04-25T03:27:34;6.20;99.90
46416;DHT22;32620;51.704;7.822;2023-04-25T03:29:59;6.30;99.90
46416;DHT22;32620;51.704;7.822;2023-04-25T03:32:25;6.20;99.90
46416;DHT22;32620;51.704;7.822;2023-04-25T03:34:51;6.20;99.90
46416;DHT22;32620;51.704;7.822;2023-04-25T03:37:17;6.20;99.90
46416;DHT22;32620;51.704;7.822;2023-04-25T03:39:45;6.20;99.90
46416;DHT22;32620;51.704;7.822;2023-04-25T03:42:11;6.20;99.90
46416;DHT22;32620;51.704;7.822;2023-04-25T03:44:43;6.20;99.90
46416;DHT22;32620;51.704;7.822;2023-04-25T03:47:09;6.20;99.90
46416;DHT22;32620;51.704;7.822;2023-04-25T03:49:35;6.20;99.90
46416;DHT22;32620;51.704;7.822;2023-04-25T03:52:02;6.10;99.90
46416;DHT22;32620;51.704;7.822;2023-04-25T03:54:27;6.20;99.90
46416;DHT22;32620;51.704;7.822;2023-04-25T03:56:56;6.20;99.90
46416;DHT22;32620;51.704;7.822;2023-04-25T03:59:22;6.20;99.90
46416;DHT22;32620;51.704;7.822;2023-04-25T04:01:51;6.20;99.90
46416;DHT22;32620;51.704;7.822;2023-04-25T04:04:17;6.10;99.90
46416;DHT22;32620;51.704;7.822;2023-04-25T04:06:44;6.10;99.90
46416;DHT22;32620;51.704;7.822;2023-04-25T04:09:10;6.10;99.90
46416;DHT22;32620;51.704;7.822;2023-04-25T04:11:37;6.10;99.90
46416;DHT22;32620;51.704;7.822;2023-04-25T04:14:05;6.10;99.90
46416;DHT22;32620;51.704;7.822;2023-04-25T04:16:31;6.10;99.90
46416;DHT22;32620;51.704;7.822;2023-04-25T04:18:56;6.10;99.90
46416;DHT22;32620;51.704;7.822;2023-04-25T04:21:22;6.10;99.90
46416;DHT22;32620;51.704;7.822;2023-04-25T04:23:47;6.10;99.90
46416;DHT22;32620;51.704;7.822;2023-04-25T04:26:14;6.10;99.90
46416;DHT22;32620;51.704;7.822;2023-04-25T04:28:42;6.10;99.90
46416;DHT22;32620;51.704;7.822;2023-04-25T04:31:08;6.10;99.90
46416;DHT22;32620;51.704;7.822;2023-04-25T04:33:34;6.10;99.90
46416;DHT22;32620;51.704;7.822;2023-04-25T04:36:00;6.20;99.90
46416;DHT22;32620;51.704;7.822;2023-04-25T04:38:26;6.20;99.90
46416;DHT22;32620;51.704;7.822;2023-04-25T04:40:51;6.20;99.90
46416;DHT22;32620;51.704;7.822;2023-04-25T04:43:17;6.20;99.90
46416;DHT22;32620;51.704;7.822;2023-04-25T04:45:44;6.20;99.90
46416;DHT22;32620;51.704;7.822;2023-04-25T04:48:09;6.20;99.90
46416;DHT22;32620;51.704;7.822;2023-04-25T04:50:37;6.20;99.90
46416;DHT22;32620;51.704;7.822;2023-04-25T04:53:07;6.10;99.90
46416;DHT22;32620;51.704;7.822;2023-04-25T04:55:32;6.10;99.90
46416;DHT22;32620;51.704;7.822;2023-04-25T04:57:58;6.20;99.90
46416;DHT22;32620;51.704;7.822;2023-04-25T05:00:23;6.20;99.90
46416;DHT22;32620;51.704;7.822;2023-04-25T05:02:49;6.20;99.90
46416;DHT22;32620;51.704;7.822;2023-04-25T05:05:14;6.20;99.90
46416;DHT22;32620;51.704;7.822;2023-04-25T05:07:40;6.20;99.90
46416;DHT22;32620;51.704;7.822;2023-04-25T05:10:06;6.20;99.90
46416;DHT22;32620;51.704;7.822;2023-04-25T05:12:32;6.20;99.90
46416;DHT22;32620;51.704;7.822;2023-04-25T05:14:57;6.20;99.90
46416;DHT22;32620;51.704;7.822;2023-04-25T05:17:23;6.30;99.90
46416;DHT22;32620;51.704;7.822;2023-04-25T05:19:48;6.30;99.90
46416;DHT22;32620;51.704;7.822;2023-04-25T05:22:14;6.30;99.90
46416;DHT22;32620;51.704;7.822;2023-04-25T05:24:39;6.40;99.90
46416;DHT22;32620;51.704;7.822;2023-04-25T05:27:05;6.40;99.90
46416;DHT22;32620;51.704;7.822;2023-04-25T05:29:31;6.40;99.90
46416;DHT22;32620;51.704;7.822;2023-04-25T05:31:56;6.50;99.90
46416;DHT22;32620;51.704;7.822;2023-04-25T05:34:22;6.50;99.90
46416;DHT22;32620;51.704;7.822;2023-04-25T05:36:47;6.60;99.90
46416;DHT22;32620;51.704;7.822;2023-04-25T05:39:15;6.70;99.90
46416;DHT22;32620;51.704;7.822;2023-04-25T05:41:42;6.70;99.90
46416;DHT22;32620;51.704;7.822;2023-04-25T05:44:07;6.80;99.90
46416;DHT22;32620;51.704;7.822;2023-04-25T05:46:33;7.10;99.90
46416;DHT22;32620;51.704;7.822;2023-04-25T05:48:58;7.30;99.90
46416;DHT22;32620;51.704;7.822;2023-04-25T05:51:24;7.50;99.90
46416;DHT22;32620;51.704;7.822;2023-04-25T05:53:49;7.60;99.90
46416;DHT22;32620;51.704;7.822;2023-04-25T05:56:15;7.70;93.30
46416;DHT22;32620;51.704;7.822;2023-04-25T05:58:40;7.90;90.90
46416;DHT22;32620;51.704;7.822;2023-04-25T06:01:06;7.80;74.10
46416;DHT22;32620;51.704;7.822;2023-04-25T06:03:31;7.90;72.40
46416;DHT22;32620;51.704;7.822;2023-04-25T06:05:57;7.80;51.40
46416;DHT22;32620;51.704;7.822;2023-04-25T06:08:23;7.80;64.20
46416;DHT22;32620;51.704;7.822;2023-04-25T06:10:48;8.40;71.50
46416;DHT22;32620;51.704;7.822;2023-04-25T06:13:14;9.20;38.20
46416;DHT22;32620;51.704;7.822;2023-04-25T06:15:39;10.80;1.00
46416;DHT22;32620;51.704;7.822;2023-04-25T06:18:05;11.40;1.00
46416;DHT22;32620;51.704;7.822;2023-04-25T06:20:30;10.70;1.00
46416;DHT22;32620;51.704;7.822;2023-04-25T06:22:56;10.10;1.00
46416;DHT22;32620;51.704;7.822;2023-04-25T06:25:22;9.00;1.00
46416;DHT22;32620;51.704;7.822;2023-04-25T06:27:48;8.40;1.00
46416;DHT22;32620;51.704;7.822;2023-04-25T06:30:13;8.10;4.80
46416;DHT22;32620;51.704;7.822;2023-04-25T06:32:39;7.90;7.00
46416;DHT22;32620;51.704;7.822;2023-04-25T06:35:05;8.10;39.40
46416;DHT22;32620;51.704;7.822;2023-04-25T06:37:31;8.10;25.40
46416;DHT22;32620;51.704;7.822;2023-04-25T06:39:56;8.10;20.40
46416;DHT22;32620;51.704;7.822;2023-04-25T06:42:22;8.10;22.40
46416;DHT22;32620;51.704;7.822;2023-04-25T06:44:47;8.10;7.60
46416;DHT22;32620;51.704;7.822;2023-04-25T06:47:13;8.00;12.90
46416;DHT22;32620;51.704;7.822;2023-04-25T06:49:38;8.10;10.80
46416;DHT22;32620;51.704;7.822;2023-04-25T06:52:04;8.10;2.60
46416;DHT22;32620;51.704;7.822;2023-04-25T06:54:30;8.40;1.00
46416;DHT22;32620;51.704;7.822;2023-04-25T06:56:56;8.70;1.00
46416;DHT22;32620;51.704;7.822;2023-04-25T06:59:22;8.80;1.00
46416;DHT22;32620;51.704;7.822;2023-04-25T07:01:47;8.80;1.00
46416;DHT22;32620;51.704;7.822;2023-04-25T07:04:13;9.00;1.00
46416;DHT22;32620;51.704;7.822;2023-04-25T07:06:39;9.00;1.00
46416;DHT22;32620;51.704;7.822;2023-04-25T07:09:08;8.90;1.00
46416;DHT22;32620;51.704;7.822;2023-04-25T07:11:35;8.70;1.00
46416;DHT22;32620;51.704;7.822;2023-04-25T07:14:01;8.70;1.00
46416;DHT22;32620;51.704;7.822;2023-04-25T07:16:26;9.20;1.00
46416;DHT22;32620;51.704;7.822;2023-04-25T07:18:52;9.60;1.00
46416;DHT22;32620;51.704;7.822;2023-04-25T07:21:17;10.20;1.00
46416;DHT22;32620;51.704;7.822;2023-04-25T07:23:43;10.10;1.00
46416;DHT22;32620;51.704;7.822;2023-04-25T07:26:09;9.90;1.00
46416;DHT22;32620;51.704;7.822;2023-04-25T07:28:34;10.20;99.90
46416;DHT22;32620;51.704;7.822;2023-04-25T07:31:00;11.10;99.90
46416;DHT22;32620;51.704;7.822;2023-04-25T07:33:25;11.50;99.90
46416;DHT22;32620;51.704;7.822;2023-04-25T07:35:52;11.40;1.00
46416;DHT22;32620;51.704;7.822;2023-04-25T07:38:17;11.60;99.90
46416;DHT22;32620;51.704;7.822;2023-04-25T07:40:43;11.40;99.90
46416;DHT22;32620;51.704;7.822;2023-04-25T07:43:08;11.80;1.00
46416;DHT22;32620;51.704;7.822;2023-04-25T07:45:34;11.90;99.90
46416;DHT22;32620;51.704;7.822;2023-04-25T07:47:59;11.10;1.00
46416;DHT22;32620;51.704;7.822;2023-04-25T07:50:25;11.40;92.60
46416;DHT22;32620;51.704;7.822;2023-04-25T07:52:50;12.20;99.90
46416;DHT22;32620;51.704;7.822;2023-04-25T07:55:16;12.20;1.00
46416;DHT22;32620;51.704;7.822;2023-04-25T07:57:41;12.20;99.90
46416;DHT22;32620;51.704;7.822;2023-04-25T08:00:07;11.50;99.90
46416;DHT22;32620;51.704;7.822;2023-04-25T08:02:35;11.80;99.90
46416;DHT22;32620;51.704;7.822;2023-04-25T08:05:02;11.80;1.00
46416;DHT22;32620;51.704;7.822;2023-04-25T08:07:27;11.20;99.90
46416;DHT22;32620;51.704;7.822;2023-04-25T08:09:54;10.80;99.90
46416;DHT22;32620;51.704;7.822;2023-04-25T08:12:20;10.50;65.40
46416;DHT22;32620;51.704;7.822;2023-04-25T08:14:45;10.60;99.90
46416;DHT22;32620;51.704;7.822;2023-04-25T08:17:11;11.20;99.90
46416;DHT22;32620;51.704;7.822;2023-04-25T08:19:36;12.00;20.00
46416;DHT22;32620;51.704;7.822;2023-04-25T08:22:02;12.10;99.90
46416;DHT22;32620;51.704;7.822;2023-04-25T08:24:28;11.40;1.00
46416;DHT22;32620;51.704;7.822;2023-04-25T08:26:53;10.90;1.00
46416;DHT22;32620;51.704;7.822;2023-04-25T08:29:19;11.30;99.90
46416;DHT22;32620;51.704;7.822;2023-04-25T08:31:45;11.30;99.90
46416;DHT22;32620;51.704;7.822;2023-04-25T08:34:10;11.40;83.40
46416;DHT22;32620;51.704;7.822;2023-04-25T08:36:36;11.00;99.90
46416;DHT22;32620;51.704;7.822;2023-04-25T08:39:02;10.70;99.90
46416;DHT22;32620;51.704;7.822;2023-04-25T08:41:27;10.50;99.90
46416;DHT22;32620;51.704;7.822;2023-04-25T08:43:55;10.20;99.90
46416;DHT22;32620;51.704;7.822;2023-04-25T08:46:21;10.20;1.00
46416;DHT22;32620;51.704;7.822;2023-04-25T08:48:49;10.10;99.90
46416;DHT22;32620;51.704;7.822;2023-04-25T08:51:22;10.30;99.90
46416;DHT22;32620;51.704;7.822;2023-04-25T08:53:51;10.60;99.90
46416;DHT22;32620;51.704;7.822;2023-04-25T08:56:18;10.90;1.00
46416;DHT22;32620;51.704;7.822;2023-04-25T08:58:48;11.30;99.90
46416;DHT22;32620;51.704;7.822;2023-04-25T09:01:14;12.00;99.90
46416;DHT22;32620;51.704;7.822;2023-04-25T09:03:40;12.30;99.90
46416;DHT22;32620;51.704;7.822;2023-04-25T09:06:05;11.90;99.90
46416;DHT22;32620;51.704;7.822;2023-04-25T09:08:31;11.20;99.90
46416;DHT22;32620;51.704;7.822;2023-04-25T09:10:56;10.80;99.90
46416;DHT22;32620;51.704;7.822;2023-04-25T09:13:27;10.40;1.00
46416;DHT22;32620;51.704;7.822;2023-04-25T09:15:55;10.10;93.40
46416;DHT22;32620;51.704;7.822;2023-04-25T09:18:33;10.00;1.00
46416;DHT22;32620;51.704;7.822;2023-04-25T09:21:08;9.90;1.00
46416;DHT22;32620;51.704;7.822;2023-04-25T09:23:45;9.80;99.90
46416;DHT22;32620;51.704;7.822;2023-04-25T09:26:15;9.90;99.90
46416;DHT22;32620;51.704;7.822;2023-04-25T09:28:42;10.10;99.90
46416;DHT22;32620;51.704;7.822;2023-04-25T09:31:09;10.40;99.90
46416;DHT22;32620;51.704;7.822;2023-04-25T09:33:35;10.70;1.00
46416;DHT22;32620;51.704;7.822;2023-04-25T09:36:03;10.40;1.00
46416;DHT22;32620;51.704;7.822;2023-04-25T09:38:30;10.60;1.00
46416;DHT22;32620;51.704;7.822;2023-04-25T09:40:56;10.70;1.00
46416;DHT22;32620;51.704;7.822;2023-04-25T09:43:23;10.60;1.00
46416;DHT22;32620;51.704;7.822;2023-04-25T09:45:50;10.50;1.00
46416;DHT22;32620;51.704;7.822;2023-04-25T09:48:19;10.40;1.00
46416;DHT22;32620;51.704;7.822;2023-04-25T09:50:48;10.10;1.00
46416;DHT22;32620;51.704;7.822;2023-04-25T09:53:29;10.90;1.00
46416;DHT22;32620;51.704;7.822;2023-04-25T09:55:55;11.70;99.90
46416;DHT22;32620;51.704;7.822;2023-04-25T09:58:24;12.30;99.90
46416;DHT22;32620;51.704;7.822;2023-04-25T10:00:50;12.80;1.00
46416;DHT22;32620;51.704;7.822;2023-04-25T10:03:17;13.60;99.90
46416;DHT22;32620;51.704;7.822;2023-04-25T10:05:46;14.10;99.90
46416;DHT22;32620;51.704;7.822;2023-04-25T10:08:13;13.60;99.90
46416;DHT22;32620;51.704;7.822;2023-04-25T10:10:40;13.80;16.70
46416;DHT22;32620;51.704;7.822;2023-04-25T10:13:06;13.50;1.00
46416;DHT22;32620;51.704;7.822;2023-04-25T10:15:34;12.90;1.00
46416;DHT22;32620;51.704;7.822;2023-04-25T10:18:00;12.10;1.00
46416;DHT22;32620;51.704;7.822;2023-04-25T10:20:26;11.60;94.70
46416;DHT22;32620;51.704;7.822;2023-04-25T10:22:54;11.40;57.10
46416;DHT22;32620;51.704;7.822;2023-04-25T10:25:22;10.90;99.90
46416;DHT22;32620;51.704;7.822;2023-04-25T10:27:51;10.90;99.90
46416;DHT22;32620;51.704;7.822;2023-04-25T10:30:18;10.80;99.90
46416;DHT22;32620;51.704;7.822;2023-04-25T10:32:44;10.50;99.90
46416;DHT22;32620;51.704;7.822;2023-04-25T10:35:15;10.30;99.90
46416;DHT22;32620;51.704;7.822;2023-04-25T10:38:00;10.30;99.90
46416;DHT22;32620;51.704;7.822;2023-04-25T10:40:28;10.10;99.90
46416;DHT22;32620;51.704;7.822;2023-04-25T10:42:54;10.10;99.90
46416;DHT22;32620;51.704;7.822;2023-04-25T10:45:20;10.60;99.90
46416;DHT22;32620;51.704;7.822;2023-04-25T10:47:46;10.80;99.90
46416;DHT22;32620;51.704;7.822;2023-04-25T10:50:14;10.90;99.90
46416;DHT22;32620;51.704;7.822;2023-04-25T10:52:41;11.00;13.00
46416;DHT22;32620;51.704;7.822;2023-04-25T10:55:07;11.10;1.00
46416;DHT22;32620;51.704;7.822;2023-04-25T10:57:44;10.90;1.00
46416;DHT22;32620;51.704;7.822;2023-04-25T11:00:15;10.80;1.00
46416;DHT22;32620;51.704;7.822;2023-04-25T11:02:42;10.70;1.00
46416;DHT22;32620;51.704;7.822;2023-04-25T11:05:14;10.80;1.00
46416;DHT22;32620;51.704;7.822;2023-04-25T11:07:50;10.70;1.00
46416;DHT22;32620;51.704;7.822;2023-04-25T11:10:17;10.30;1.00
46416;DHT22;32620;51.704;7.822;2023-04-25T11:12:44;10.50;1.00
46416;DHT22;32620;51.704;7.822;2023-04-25T11:15:10;11.00;19.70
46416;DHT22;32620;51.704;7.822;2023-04-25T11:17:35;10.90;1.00
46416;DHT22;32620;51.704;7.822;2023-04-25T11:20:01;10.60;1.00
46416;DHT22;32620;51.704;7.822;2023-04-25T11:22:28;10.70;91.10
46416;DHT22;32620;51.704;7.822;2023-04-25T11:24:54;10.90;21.10
46416;DHT22;32620;51.704;7.822;2023-04-25T11:27:20;11.20;1.00
46416;DHT22;32620;51.704;7.822;2023-04-25T11:29:46;11.60;9.00
46416;DHT22;32620;51.704;7.822;2023-04-25T11:32:15;11.80;1.00
46416;DHT22;32620;51.704;7.822;2023-04-25T11:34:43;12.40;1.00
46416;DHT22;32620;51.704;7.822;2023-04-25T11:37:11;12.60;1.00
46416;DHT22;32620;51.704;7.822;2023-04-25T11:39:38;12.40;1.00
46416;DHT22;32620;51.704;7.822;2023-04-25T11:42:04;12.40;1.00
46416;DHT22;32620;51.704;7.822;2023-04-25T11:44:31;12.20;1.00
46416;DHT22;32620;51.704;7.822;2023-04-25T11:46:56;12.40;1.00
46416;DHT22;32620;51.704;7.822;2023-04-25T11:49:22;12.80;1.00
46416;DHT22;32620;51.704;7.822;2023-04-25T11:51:50;12.80;1.00
46416;DHT22;32620;51.704;7.822;2023-04-25T11:54:15;12.60;1.00
46416;DHT22;32620;51.704;7.822;2023-04-25T11:56:43;12.60;1.00
46416;DHT22;32620;51.704;7.822;2023-04-25T11:59:08;12.80;1.00
46416;DHT22;32620;51.704;7.822;2023-04-25T12:01:37;13.00;1.00
46416;DHT22;32620;51.704;7.822;2023-04-25T12:04:12;12.40;1.00
46416;DHT22;32620;51.704;7.822;2023-04-25T12:06:38;12.30;1.00
46416;DHT22;32620;51.704;7.822;2023-04-25T12:09:08;12.70;1.00
46416;DHT22;32620;51.704;7.822;2023-04-25T12:11:42;12.40;1.00
46416;DHT22;32620;51.704;7.822;2023-04-25T12:14:09;12.10;1.00
46416;DHT22;32620;51.704;7.822;2023-04-25T12:16:43;11.80;1.00
46416;DHT22;32620;51.704;7.822;2023-04-25T12:19:09;11.50;1.00
46416;DHT22;32620;51.704;7.822;2023-04-25T12:21:35;11.50;1.00
46416;DHT22;32620;51.704;7.822;2023-04-25T12:24:11;11.70;1.00
46416;DHT22;32620;51.704;7.822;2023-04-25T12:27:03;11.40;1.00
46416;DHT22;32620;51.704;7.822;2023-04-25T12:29:31;11.10;1.00
46416;DHT22;32620;51.704;7.822;2023-04-25T12:31:57;10.70;1.00
46416;DHT22;32620;51.704;7.822;2023-04-25T12:34:24;10.40;1.00
46416;DHT22;32620;51.704;7.822;2023-04-25T12:36:51;9.60;99.90
46416;DHT22;32620;51.704;7.822;2023-04-25T12:39:21;9.20;50.40
46416;DHT22;32620;51.704;7.822;2023-04-25T12:41:49;8.90;99.90
46416;DHT22;32620;51.704;7.822;2023-04-25T12:44:14;8.50;99.90
46416;DHT22;32620;51.704;7.822;2023-04-25T12:46:40;8.50;99.90
46416;DHT22;32620;51.704;7.822;2023-04-25T12:49:07;8.50;99.90
46416;DHT22;32620;51.704;7.822;2023-04-25T12:51:34;8.50;99.90
46416;DHT22;32620;51.704;7.822;2023-04-25T12:54:00;8.30;99.90
46416;DHT22;32620;51.704;7.822;2023-04-25T12:56:27;8.40;1.00
46416;DHT22;32620;51.704;7.822;2023-04-25T12:58:53;8.40;99.90
46416;DHT22;32620;51.704;7.822;2023-04-25T13:01:19;8.40;99.90
46416;DHT22;32620;51.704;7.822;2023-04-25T13:03:45;8.50;99.90
46416;DHT22;32620;51.704;7.822;2023-04-25T13:06:11;8.60;99.90
46416;DHT22;32620;51.704;7.822;2023-04-25T13:08:38;8.80;16.00
46416;DHT22;32620;51.704;7.822;2023-04-25T13:11:06;8.90;99.90
46416;DHT22;32620;51.704;7.822;2023-04-25T13:13:31;9.00;99.90
46416;DHT22;32620;51.704;7.822;2023-04-25T13:15:58;9.00;99.90
46416;DHT22;32620;51.704;7.822;2023-04-25T13:18:24;9.20;99.90
46416;DHT22;32620;51.704;7.822;2023-04-25T13:20:52;9.30;99.90
46416;DHT22;32620;51.704;7.822;2023-04-25T13:23:18;9.40;1.00
46416;DHT22;32620;51.704;7.822;2023-04-25T13:25:44;9.60;99.90
46416;DHT22;32620;51.704;7.822;2023-04-25T13:28:10;9.80;99.90
46416;DHT22;32620;51.704;7.822;2023-04-25T13:30:36;10.00;99.90
46416;DHT22;32620;51.704;7.822;2023-04-25T13:33:02;10.00;1.00
46416;DHT22;32620;51.704;7.822;2023-04-25T13:35:29;10.30;1.00
46416;DHT22;32620;51.704;7.822;2023-04-25T13:37:55;10.80;33.90
46416;DHT22;32620;51.704;7.822;2023-04-25T13:40:21;11.30;99.90
46416;DHT22;32620;51.704;7.822;2023-04-25T13:42:47;11.60;1.00
46416;DHT22;32620;51.704;7.822;2023-04-25T13:45:13;11.70;1.00
46416;DHT22;32620;51.704;7.822;2023-04-25T13:47:38;11.60;1.00
46416;DHT22;32620;51.704;7.822;2023-04-25T13:50:05;11.40;27.60
46416;DHT22;32620;51.704;7.822;2023-04-25T13:52:32;11.40;31.70
46416;DHT22;32620;51.704;7.822;2023-04-25T13:54:58;11.40;40.50
46416;DHT22;32620;51.704;7.822;2023-04-25T13:57:24;11.50;80.60
46416;DHT22;32620;51.704;7.822;2023-04-25T13:59:50;11.50;1.00
46416;DHT22;32620;51.704;7.822;2023-04-25T14:02:17;11.10;27.70
46416;DHT22;32620;51.704;7.822;2023-04-25T14:04:43;11.00;1.60
46416;DHT22;32620;51.704;7.822;2023-04-25T14:07:08;11.10;99.90
46416;DHT22;32620;51.704;7.822;2023-04-25T14:09:36;11.30;93.70
46416;DHT22;32620;51.704;7.822;2023-04-25T14:12:01;11.30;99.90
46416;DHT22;32620;51.704;7.822;2023-04-25T14:14:27;11.40;21.70
46416;DHT22;32620;51.704;7.822;2023-04-25T14:16:53;11.30;1.00
46416;DHT22;32620;51.704;7.822;2023-04-25T14:19:20;11.40;1.00
46416;DHT22;32620;51.704;7.822;2023-04-25T14:21:46;11.30;50.70
46416;DHT22;32620;51.704;7.822;2023-04-25T14:24:13;11.40;37.00
46416;DHT22;32620;51.704;7.822;2023-04-25T14:26:38;11.70;1.00
46416;DHT22;32620;51.704;7.822;2023-04-25T14:29:05;12.10;99.90
46416;DHT22;32620;51.704;7.822;2023-04-25T14:31:32;12.20;1.00
46416;DHT22;32620;51.704;7.822;2023-04-25T14:33:58;11.70;1.00
46416;DHT22;32620;51.704;7.822;2023-04-25T14:36:24;11.40;1.00
46416;DHT22;32620;51.704;7.822;2023-04-25T14:38:51;11.00;48.10
46416;DHT22;32620;51.704;7.822;2023-04-25T14:41:17;10.80;99.90
46416;DHT22;32620;51.704;7.822;2023-04-25T14:43:43;10.30;99.90
46416;DHT22;32620;51.704;7.822;2023-04-25T14:46:09;9.90;35.90
46416;DHT22;32620;51.704;7.822;2023-04-25T14:48:34;9.40;99.90
46416;DHT22;32620;51.704;7.822;2023-04-25T14:51:00;8.60;99.90
46416;DHT22;32620;51.704;7.822;2023-04-25T18:03:47;8.20;99.90
46416;DHT22;32620;51.704;7.822;2023-04-25T18:06:14;8.10;1.00
46416;DHT22;32620;51.704;7.822;2023-04-25T18:08:40;8.00;99.90
46416;DHT22;32620;51.704;7.822;2023-04-25T18:42:52;7.00;97.30
46416;DHT22;32620;51.704;7.822;2023-04-25T18:45:18;6.90;99.90
46416;DHT22;32620;51.704;7.822;2023-04-25T18:50:11;6.60;1.00
46416;DHT22;32620;51.704;7.822;2023-04-25T18:52:37;6.50;99.90
46416;DHT22;32620;51.704;7.822;2023-04-25T18:55:03;6.30;7.40
46416;DHT22;32620;51.704;7.822;2023-04-25T18:57:29;6.20;99.90
46416;DHT22;32620;51.704;7.822;2023-04-25T18:59:54;6.10;99.90
46416;DHT22;32620;51.704;7.822;2023-04-25T19:02:20;5.90;99.90
46416;DHT22;32620;51.704;7.822;2023-04-25T19:04:47;5.90;99.90
46416;DHT22;32620;51.704;7.822;2023-04-25T19:07:12;5.70;99.90
46416;DHT22;32620;51.704;7.822;2023-04-25T19:09:39;5.90;99.90
46416;DHT22;32620;51.704;7.822;2023-04-25T19:12:05;5.90;99.90
46416;DHT22;32620;51.704;7.822;2023-04-25T19:14:31;6.00;99.90
46416;DHT22;32620;51.704;7.822;2023-04-25T19:16:57;6.10;1.00
46416;DHT22;32620;51.704;7.822;2023-04-25T19:19:24;6.10;1.00
46416;DHT22;32620;51.704;7.822;2023-04-25T19:21:50;6.20;99.90
46416;DHT22;32620;51.704;7.822;2023-04-25T19:24:16;6.10;99.90
46416;DHT22;32620;51.704;7.822;2023-04-25T19:26:42;6.10;54.10